Terminal Aerodrome Forecast
Issued by NWS Albany, NY

Home | Current Version | Previous Version | Text Only | Print | Product List | Glossary On
Versions: 1 2 3 4 5 6 7 8 9 10 11 12 13 14 15 16 17
000
FTUS41 KALY 311120
TAFGFL
TAF
KGFL 311120Z 3112/0112 00000KT P6SM SKC
     FM311400 24006KT P6SM SCT070
     FM311700 26010G16KT P6SM SCT070
     FM312300 VRB03KT P6SM SKC
     FM010300 VRB02KT P6SM BKN150
     FM010800 VRB03KT P6SM BKN120=

USA.gov is the U.S. government's official web portal to all federal, state and local government web resources and services.